createdAt,value
2018-05-11T00:00:48.993Z,48.24
2018-05-11T00:01:48.849Z,48.29
2018-05-11T00:02:49.050Z,48.11
2018-05-11T00:03:48.889Z,48.27
2018-05-11T00:04:48.995Z,48.26
2018-05-11T00:05:48.881Z,48.21
2018-05-11T00:06:48.829Z,48.25
2018-05-11T00:07:48.953Z,48.12
2018-05-11T00:08:48.885Z,48.13
2018-05-11T00:09:49.087Z,48.11
2018-05-11T00:10:49.033Z,48.24
2018-05-11T00:11:49.392Z,48.17
2018-05-11T00:12:48.911Z,48.14
2018-05-11T00:13:48.825Z,48.23
2018-05-11T00:14:49.056Z,48.07
2018-05-11T00:15:48.979Z,48.14
2018-05-11T00:16:49.015Z,48.14
2018-05-11T00:17:48.917Z,48.08
2018-05-11T00:18:48.892Z,48.1
2018-05-11T00:19:48.855Z,48.18
2018-05-11T00:20:48.824Z,48.07
2018-05-11T00:21:48.964Z,48.19
2018-05-11T00:22:48.894Z,48.24
2018-05-11T00:23:48.839Z,48.12
2018-05-11T00:24:49.073Z,48.19
2018-05-11T00:25:48.999Z,48.21
2018-05-11T00:26:48.918Z,48.19
2018-05-11T00:27:48.843Z,48.18
2018-05-11T00:28:48.922Z,48.19
2018-05-11T00:29:48.979Z,48.17
2018-05-11T00:30:48.928Z,48.2
2018-05-11T00:31:49.122Z,48.19
2018-05-11T00:32:48.869Z,48.12
2018-05-11T00:33:48.929Z,48.08
2018-05-11T00:34:48.864Z,48.15
2018-05-11T00:35:49.033Z,48.18
2018-05-11T00:36:48.975Z,48.07
2018-05-11T00:37:48.993Z,48.17
2018-05-11T00:38:49.114Z,48.09
2018-05-11T00:39:48.890Z,48.16
2018-05-11T00:40:49.040Z,48.16
2018-05-11T00:41:48.831Z,48.1
2018-05-11T00:42:48.982Z,48.16
2018-05-11T00:43:48.901Z,48.15
2018-05-11T00:44:49.021Z,48.05
2018-05-11T00:45:48.996Z,48.15
2018-05-11T00:46:49.030Z,48.16
2018-05-11T00:47:49.149Z,48.14
2018-05-11T00:48:48.907Z,48.06
2018-05-11T00:49:49.037Z,48.09
2018-05-11T00:50:48.876Z,48.12
2018-05-11T00:51:48.904Z,48.2
2018-05-11T00:52:48.880Z,48.25
2018-05-11T00:53:49.128Z,48.14
2018-05-11T00:54:48.961Z,48.17
2018-05-11T00:55:48.963Z,48.14
2018-05-11T00:56:48.981Z,48.1
2018-05-11T00:57:49.073Z,48.15
2018-05-11T00:58:49.111Z,48.19
2018-05-11T00:59:49.185Z,48.1
2018-05-11T01:00:48.960Z,48.09
2018-05-11T01:01:49.236Z,48.19
2018-05-11T01:02:48.925Z,48.04
2018-05-11T01:03:49.210Z,48.19
2018-05-11T01:04:48.958Z,48.11
2018-05-11T01:05:48.849Z,48.08
2018-05-11T01:06:49.030Z,48.11
2018-05-11T01:07:49.130Z,48.14
2018-05-11T01:08:49.032Z,48.03
2018-05-11T01:09:48.885Z,48.1
2018-05-11T01:10:48.932Z,48.12
2018-05-11T01:11:48.836Z,48.04
2018-05-11T01:12:49.042Z,48.09
2018-05-11T01:13:48.629Z,48.12
2018-05-11T01:14:49.014Z,47.99
2018-05-11T01:15:48.869Z,48.1
2018-05-11T01:16:48.860Z,48.15
2018-05-11T01:17:49.060Z,47.96
2018-05-11T01:18:49.030Z,48.02
2018-05-11T01:19:49.080Z,48.08
2018-05-11T01:20:49.076Z,48.08
2018-05-11T01:21:48.947Z,48.11
2018-05-11T01:22:49.060Z,48.12
2018-05-11T01:23:48.836Z,48.01
2018-05-11T01:24:48.898Z,48.05
2018-05-11T01:25:48.872Z,48.08
2018-05-11T01:26:49.020Z,48.07
2018-05-11T01:27:48.956Z,48.13
2018-05-11T01:28:49.113Z,48.13
2018-05-11T01:29:48.983Z,48.03
2018-05-11T01:30:48.824Z,48.14
2018-05-11T01:31:48.976Z,48.11
2018-05-11T01:32:48.865Z,48.04
2018-05-11T01:33:49.048Z,48.17
2018-05-11T01:34:48.854Z,48.17
2018-05-11T01:35:49.055Z,48.07
2018-05-11T01:36:49.001Z,48.07
2018-05-11T01:37:48.816Z,48.13
2018-05-11T01:38:48.960Z,47.99
2018-05-11T01:39:49.084Z,48.09
2018-05-11T01:40:49.017Z,48.16
2018-05-11T01:41:49.002Z,48.13
2018-05-11T01:42:48.854Z,48.09
2018-05-11T01:43:48.979Z,48.15
2018-05-11T01:44:48.933Z,48.1
2018-05-11T01:45:49.011Z,48.13
2018-05-11T01:46:48.906Z,48.05
2018-05-11T01:47:48.931Z,48.05
2018-05-11T01:48:49.105Z,48.11
2018-05-11T01:49:49.055Z,48.14
2018-05-11T01:50:48.838Z,48
2018-05-11T01:51:48.781Z,48.08
2018-05-11T01:52:49.172Z,48.11
2018-05-11T01:53:48.924Z,48.02
2018-05-11T01:54:48.854Z,48.07
2018-05-11T01:55:48.876Z,48.11
2018-05-11T01:56:48.860Z,48
2018-05-11T01:57:49.051Z,48.09
2018-05-11T01:58:48.790Z,48.12
2018-05-11T01:59:48.868Z,48.02
2018-05-11T02:00:48.863Z,48.03
2018-05-11T02:01:49.144Z,48.15
2018-05-11T02:02:48.838Z,48
2018-05-11T02:03:48.877Z,48.1
2018-05-11T02:04:49.127Z,48.18
2018-05-11T02:05:49.388Z,48.04
2018-05-11T02:06:49.051Z,48.13
2018-05-11T02:07:49.024Z,48.15
2018-05-11T02:08:48.911Z,48.03
2018-05-11T02:09:49.164Z,48.07
2018-05-11T02:10:48.935Z,48.12
2018-05-11T02:11:48.958Z,48.1
2018-05-11T02:12:48.820Z,48.08
2018-05-11T02:13:49.059Z,48.1
2018-05-11T02:14:48.909Z,48.05
2018-05-11T02:15:49.321Z,48.04
2018-05-11T02:16:49.097Z,48.14
2018-05-11T02:17:48.825Z,48.03
2018-05-11T02:18:48.821Z,48.11
2018-05-11T02:19:48.832Z,48.08
2018-05-11T02:20:49.115Z,47.93
2018-05-11T02:21:48.935Z,48.09
2018-05-11T02:22:49.116Z,48.06
2018-05-11T02:23:48.842Z,48.01
2018-05-11T02:24:48.879Z,47.97
2018-05-11T02:25:49.519Z,48.07
2018-05-11T02:26:48.882Z,48.05
2018-05-11T02:27:49.010Z,48.09
2018-05-11T02:28:48.928Z,47.99
2018-05-11T02:29:49.005Z,47.97
2018-05-11T02:30:48.824Z,48.07
2018-05-11T02:31:49.068Z,48.09
2018-05-11T02:32:49.045Z,48.01
2018-05-11T02:33:48.860Z,47.99
2018-05-11T02:34:49.041Z,48.09
2018-05-11T02:35:48.918Z,47.98
2018-05-11T02:36:48.953Z,48.05
2018-05-11T02:37:48.949Z,48.07
2018-05-11T02:38:49.057Z,48
2018-05-11T02:39:49.035Z,48
2018-05-11T02:40:48.785Z,48.11
2018-05-11T02:41:48.959Z,47.97
2018-05-11T02:42:48.982Z,48.01
2018-05-11T02:43:48.895Z,48.01
2018-05-11T02:44:48.901Z,47.97
2018-05-11T02:45:48.954Z,48.08
2018-05-11T02:46:48.902Z,48.09
2018-05-11T02:47:48.814Z,47.92
2018-05-11T02:48:48.855Z,48.07
2018-05-11T02:49:48.868Z,48.09
2018-05-11T02:50:48.911Z,47.95
2018-05-11T02:51:49.015Z,48.02
2018-05-11T02:52:49.420Z,48
2018-05-11T02:53:49.000Z,47.9
2018-05-11T02:54:48.962Z,48.02
2018-05-11T02:55:48.937Z,48.02
2018-05-11T02:56:48.965Z,47.97
2018-05-11T02:57:49.000Z,47.99
2018-05-11T02:58:48.956Z,48.03
2018-05-11T02:59:48.873Z,47.97
2018-05-11T03:00:48.838Z,48.03
2018-05-11T03:02:20.332Z,48.03
2018-05-11T03:02:49.055Z,47.95
2018-05-11T03:03:48.871Z,47.99
2018-05-11T03:04:49.045Z,48.05
2018-05-11T03:05:48.844Z,47.88
2018-05-11T03:06:48.965Z,47.92
2018-05-11T03:07:49.016Z,48.02
2018-05-11T03:08:48.937Z,48.04
2018-05-11T03:09:48.817Z,48.08
2018-05-11T03:10:48.965Z,48.02
2018-05-11T03:11:48.940Z,47.98
2018-05-11T03:12:48.894Z,48.01
2018-05-11T03:13:48.909Z,48.06
2018-05-11T03:14:48.988Z,47.99
2018-05-11T03:15:48.755Z,48.02
2018-05-11T03:16:48.978Z,48.05
2018-05-11T03:17:48.930Z,48.02
2018-05-11T03:18:49.022Z,47.96
2018-05-11T03:19:49.001Z,48.04
2018-05-11T03:20:49.123Z,47.97
2018-05-11T03:21:48.967Z,47.99
2018-05-11T03:22:48.912Z,48.02
2018-05-11T03:23:48.996Z,47.86
2018-05-11T03:24:48.989Z,47.99
2018-05-11T03:25:48.787Z,47.96
2018-05-11T03:26:48.862Z,47.86
2018-05-11T03:27:49.382Z,47.98
2018-05-11T03:28:48.895Z,48.03
2018-05-11T03:29:48.957Z,47.96
2018-05-11T03:30:48.857Z,47.93
2018-05-11T03:31:49.114Z,48
2018-05-11T03:32:48.938Z,47.88
2018-05-11T03:33:48.814Z,48.02
2018-05-11T03:34:48.864Z,47.99
2018-05-11T03:35:48.951Z,47.89
2018-05-11T03:36:49.013Z,47.95
2018-05-11T03:37:49.253Z,47.99
2018-05-11T03:38:48.881Z,47.89
2018-05-11T03:39:48.879Z,47.97
2018-05-11T03:40:48.982Z,48.06
2018-05-11T03:41:48.932Z,47.91
2018-05-11T03:42:49.144Z,48.04
2018-05-11T03:43:49.062Z,48.01
2018-05-11T03:44:48.885Z,47.88
2018-05-11T03:45:49.016Z,47.95
2018-05-11T03:46:48.757Z,47.97
2018-05-11T03:47:48.924Z,47.83
2018-05-11T03:48:49.040Z,47.96
2018-05-11T03:49:48.865Z,47.96
2018-05-11T03:50:48.784Z,47.93
2018-05-11T03:51:48.898Z,47.95
2018-05-11T03:52:48.803Z,48
2018-05-11T03:53:48.781Z,47.98
2018-05-11T03:54:48.876Z,47.96
2018-05-11T03:55:48.894Z,48.04
2018-05-11T03:56:48.885Z,47.83
2018-05-11T03:57:49.145Z,48.03
2018-05-11T03:58:48.932Z,47.98
2018-05-11T03:59:49.152Z,47.9
2018-05-11T04:00:48.764Z,47.98
2018-05-11T04:01:48.953Z,48.01
2018-05-11T04:02:48.787Z,47.85
2018-05-11T04:03:48.775Z,48
2018-05-11T04:04:48.934Z,47.92
2018-05-11T04:05:48.871Z,47.84
2018-05-11T04:06:48.993Z,47.92
2018-05-11T04:07:48.742Z,47.96
2018-05-11T04:08:48.797Z,47.86
2018-05-11T04:09:48.885Z,47.93
2018-05-11T04:10:49.049Z,47.93
2018-05-11T04:11:48.994Z,47.84
2018-05-11T04:12:49.067Z,47.92
2018-05-11T04:13:49.124Z,48
2018-05-11T04:14:48.805Z,47.89
2018-05-11T04:15:48.826Z,47.92
2018-05-11T04:16:49.016Z,47.95
2018-05-11T04:17:48.886Z,47.79
2018-05-11T04:18:48.969Z,47.9
2018-05-11T04:19:48.919Z,47.93
2018-05-11T04:20:49.007Z,47.87
2018-05-11T04:21:48.873Z,47.87
2018-05-11T04:22:48.888Z,47.99
2018-05-11T04:23:48.773Z,47.85
2018-05-11T04:24:48.843Z,47.92
2018-05-11T04:25:49.158Z,47.99
2018-05-11T04:26:48.862Z,47.86
2018-05-11T04:27:48.965Z,47.89
2018-05-11T04:28:48.815Z,48
2018-05-11T04:29:48.735Z,47.89
2018-05-11T04:30:48.989Z,47.92
2018-05-11T04:31:48.919Z,47.9
2018-05-11T04:32:48.755Z,47.9
2018-05-11T04:33:48.946Z,47.91
2018-05-11T04:34:49.076Z,47.99
2018-05-11T04:35:48.759Z,47.85
2018-05-11T04:36:48.962Z,47.91
2018-05-11T04:37:48.810Z,47.9
2018-05-11T04:38:49.094Z,47.87
2018-05-11T04:39:48.802Z,47.87
2018-05-11T04:40:48.926Z,47.92
2018-05-11T04:41:48.857Z,47.83
2018-05-11T04:42:48.785Z,47.85
2018-05-11T04:43:48.954Z,47.98
2018-05-11T04:44:48.988Z,47.85
2018-05-11T04:45:48.804Z,47.96
2018-05-11T04:46:48.978Z,47.88
2018-05-11T04:47:48.924Z,47.86
2018-05-11T04:48:48.824Z,47.92
2018-05-11T04:49:48.811Z,47.96
2018-05-11T04:50:48.982Z,47.85
2018-05-11T04:51:48.851Z,47.94
2018-05-11T04:52:48.944Z,47.99
2018-05-11T04:53:49.066Z,47.85
2018-05-11T04:54:48.967Z,47.97
2018-05-11T04:55:49.028Z,47.92
2018-05-11T04:56:48.789Z,47.84
2018-05-11T04:57:48.887Z,47.86
2018-05-11T04:58:48.915Z,47.93
2018-05-11T04:59:49.019Z,47.88
2018-05-11T05:00:48.833Z,47.93
2018-05-11T05:01:48.837Z,47.91
2018-05-11T05:02:48.857Z,47.82
2018-05-11T05:03:48.813Z,47.81
2018-05-11T05:04:48.839Z,47.93
2018-05-11T05:05:48.755Z,47.89
2018-05-11T05:06:49.034Z,47.89
2018-05-11T05:07:48.830Z,47.93
2018-05-11T05:08:48.921Z,47.81
2018-05-11T05:09:48.887Z,47.84
2018-05-11T05:10:48.824Z,47.92
2018-05-11T05:11:48.859Z,47.78
2018-05-11T05:12:48.715Z,47.85
2018-05-11T05:13:48.913Z,47.89
2018-05-11T05:14:48.866Z,47.78
2018-05-11T05:15:48.788Z,47.85
2018-05-11T05:16:48.951Z,47.89
2018-05-11T05:17:48.803Z,47.81
2018-05-11T05:18:48.871Z,47.8
2018-05-11T05:19:49.035Z,47.93
2018-05-11T05:20:48.859Z,47.8
2018-05-11T05:21:48.994Z,47.79
2018-05-11T05:22:48.831Z,47.82
2018-05-11T05:23:48.885Z,47.79
2018-05-11T05:24:48.780Z,47.85
2018-05-11T05:25:49.243Z,47.91
2018-05-11T05:26:49.193Z,47.78
2018-05-11T05:27:48.869Z,47.86
2018-05-11T05:28:49.000Z,47.9
2018-05-11T05:29:48.833Z,47.79
2018-05-11T05:30:48.950Z,47.86
2018-05-11T05:31:48.780Z,47.88
2018-05-11T05:32:48.799Z,47.79
2018-05-11T05:33:48.873Z,47.84
2018-05-11T05:34:48.834Z,47.89
2018-05-11T05:35:48.920Z,47.83
2018-05-11T05:36:48.974Z,47.79
2018-05-11T05:37:48.922Z,47.89
2018-05-11T05:38:48.819Z,47.76
2018-05-11T05:39:48.898Z,47.79
2018-05-11T05:40:48.937Z,47.86
2018-05-11T05:41:48.833Z,47.77
2018-05-11T05:42:49.026Z,47.85
2018-05-11T05:43:48.856Z,47.92
2018-05-11T05:44:48.834Z,47.78
2018-05-11T05:45:48.838Z,47.87
2018-05-11T05:46:48.969Z,47.95
2018-05-11T05:47:48.975Z,47.91
2018-05-11T05:48:48.849Z,47.98
2018-05-11T05:49:48.996Z,47.89
2018-05-11T05:50:48.860Z,47.79
2018-05-11T05:51:48.895Z,47.81
2018-05-11T05:52:48.789Z,47.88
2018-05-11T05:53:48.974Z,47.85
2018-05-11T05:54:48.947Z,47.84
2018-05-11T05:55:48.960Z,47.85
2018-05-11T05:56:48.850Z,47.86
2018-05-11T05:57:48.851Z,47.89
2018-05-11T05:58:48.734Z,47.86
2018-05-11T05:59:48.758Z,47.76
2018-05-11T06:00:48.739Z,47.88
2018-05-11T06:01:48.895Z,47.93
2018-05-11T06:02:49.048Z,47.77
2018-05-11T06:03:48.885Z,47.85
2018-05-11T06:04:48.810Z,47.9
2018-05-11T06:05:48.867Z,47.79
2018-05-11T06:06:48.741Z,47.84
2018-05-11T06:07:48.890Z,47.91
2018-05-11T06:08:48.840Z,47.85
2018-05-11T06:09:48.812Z,47.88
2018-05-11T06:10:49.093Z,47.91
2018-05-11T06:11:48.863Z,47.86
2018-05-11T06:12:48.891Z,47.81
2018-05-11T06:13:48.711Z,47.88
2018-05-11T06:14:48.808Z,47.8
2018-05-11T06:15:48.801Z,47.85
2018-05-11T06:16:48.932Z,47.91
2018-05-11T06:17:48.923Z,47.83
2018-05-11T06:18:49.019Z,47.86
2018-05-11T06:19:48.882Z,47.81
2018-05-11T06:20:48.832Z,47.82
2018-05-11T06:21:48.873Z,47.86
2018-05-11T06:22:49.167Z,47.77
2018-05-11T06:23:48.949Z,47.73
2018-05-11T06:24:48.937Z,47.8
2018-05-11T06:25:48.844Z,47.87
2018-05-11T06:26:49.197Z,47.78
2018-05-11T06:27:58.818Z,47.83
2018-05-11T06:28:48.918Z,47.88
2018-05-11T06:29:48.814Z,47.79
2018-05-11T06:30:48.992Z,47.86
2018-05-11T06:31:48.818Z,47.87
2018-05-11T06:32:48.999Z,47.82
2018-05-11T06:33:48.808Z,47.89
2018-05-11T06:34:48.777Z,47.88
2018-05-11T06:35:49.412Z,47.78
2018-05-11T06:36:48.781Z,47.87
2018-05-11T06:37:48.751Z,47.91
2018-05-11T06:38:48.905Z,47.82
2018-05-11T06:39:48.972Z,47.84
2018-05-11T06:40:48.758Z,47.88
2018-05-11T06:41:48.917Z,47.75
2018-05-11T06:42:48.987Z,47.85
2018-05-11T06:43:48.779Z,47.86
2018-05-11T06:44:48.899Z,47.74
2018-05-11T06:45:48.930Z,47.81
2018-05-11T06:46:49.100Z,47.82
2018-05-11T06:47:48.830Z,47.73
2018-05-11T06:48:48.872Z,47.84
2018-05-11T06:49:48.940Z,47.92
2018-05-11T06:50:49.001Z,47.78
2018-05-11T06:51:48.960Z,47.77
2018-05-11T06:52:48.751Z,47.81
2018-05-11T06:53:48.929Z,47.78
2018-05-11T06:54:48.912Z,47.77
2018-05-11T06:55:48.963Z,47.83
2018-05-11T06:56:49.402Z,47.81
2018-05-11T06:57:48.770Z,47.82
2018-05-11T06:58:51.403Z,47.83
2018-05-11T06:59:48.829Z,47.83
2018-05-11T07:00:48.912Z,47.8
2018-05-11T07:01:48.810Z,47.89
2018-05-11T07:02:49.043Z,47.8
2018-05-11T07:03:48.926Z,47.88
2018-05-11T07:04:48.852Z,47.82
2018-05-11T07:05:48.712Z,47.77
2018-05-11T07:06:48.893Z,47.81
2018-05-11T07:07:49.316Z,47.94
2018-05-11T07:08:48.824Z,47.76
2018-05-11T07:09:48.955Z,47.83
2018-05-11T07:10:48.876Z,47.81
2018-05-11T07:11:48.963Z,47.79
2018-05-11T07:12:48.714Z,47.76
2018-05-11T07:13:48.772Z,47.91
2018-05-11T07:14:48.749Z,47.75
2018-05-11T07:15:49.598Z,47.87
2018-05-11T07:16:48.908Z,47.89
2018-05-11T07:17:48.813Z,47.83
2018-05-11T07:18:48.782Z,47.91
2018-05-11T07:19:48.986Z,47.82
2018-05-11T07:20:48.849Z,47.79
2018-05-11T07:21:48.792Z,47.85
2018-05-11T07:22:49.212Z,47.92
2018-05-11T07:23:48.851Z,47.85
2018-05-11T07:24:48.846Z,47.92
2018-05-11T07:25:48.992Z,47.9
2018-05-11T07:26:48.906Z,47.77
2018-05-11T07:27:48.865Z,47.84
2018-05-11T07:28:49.120Z,47.87
2018-05-11T07:29:48.764Z,47.8
2018-05-11T07:30:49.037Z,47.98
2018-05-11T07:31:48.797Z,47.84
2018-05-11T07:32:48.844Z,47.73
2018-05-11T07:33:48.943Z,47.84
2018-05-11T07:34:48.958Z,48
2018-05-11T07:35:49.003Z,47.84
2018-05-11T07:36:48.861Z,47.94
2018-05-11T07:37:48.878Z,47.93
2018-05-11T07:38:48.855Z,47.83
2018-05-11T07:39:48.865Z,47.86
2018-05-11T07:40:48.853Z,47.94
2018-05-11T07:41:48.807Z,47.84
2018-05-11T07:42:48.917Z,47.87
2018-05-11T07:43:48.869Z,48.19
2018-05-11T07:44:49.072Z,47.92
2018-05-11T07:45:48.912Z,48.08
2018-05-11T07:46:48.843Z,48.25
2018-05-11T07:47:48.938Z,48.3
2018-05-11T07:48:48.982Z,48.27
2018-05-11T07:49:49.120Z,48.24
2018-05-11T07:50:48.729Z,48.13
2018-05-11T07:51:48.752Z,48.16
2018-05-11T07:52:48.810Z,48.23
2018-05-11T07:53:48.704Z,48.08
2018-05-11T07:54:48.914Z,48.21
2018-05-11T07:55:48.893Z,48.23
2018-05-11T07:56:48.740Z,48.15
2018-05-11T07:57:48.844Z,48.25
2018-05-11T07:58:48.740Z,48.32
2018-05-11T07:59:48.939Z,48.17
2018-05-11T08:00:48.695Z,48.23
2018-05-11T08:01:49.003Z,48.25
2018-05-11T08:02:48.753Z,48.13
2018-05-11T08:03:48.940Z,48.19
2018-05-11T08:04:48.900Z,48.25
2018-05-11T08:05:48.935Z,48.15
2018-05-11T08:06:48.977Z,48.19
2018-05-11T08:07:48.715Z,48.18
2018-05-11T08:08:48.898Z,48.12
2018-05-11T08:09:48.748Z,48.19
2018-05-11T08:10:48.934Z,48.25
2018-05-11T08:11:48.908Z,48.11
2018-05-11T08:12:48.712Z,48.21
2018-05-11T08:13:48.906Z,48.24
2018-05-11T08:14:48.721Z,48
2018-05-11T08:15:48.753Z,48.18
2018-05-11T08:16:48.968Z,48.27
2018-05-11T08:17:48.833Z,48.12
2018-05-11T08:18:49.454Z,48.11
2018-05-11T08:19:48.900Z,48.11
2018-05-11T08:20:49.122Z,47.96
2018-05-11T08:21:49.302Z,48.08
2018-05-11T08:22:48.703Z,48.05
2018-05-11T08:23:48.750Z,47.97
2018-05-11T08:24:48.823Z,48.06
2018-05-11T08:25:48.922Z,48.07
2018-05-11T08:26:48.969Z,47.92
2018-05-11T08:27:48.908Z,47.93
2018-05-11T08:28:58.821Z,48.03
2018-05-11T08:29:48.759Z,47.94
2018-05-11T08:30:48.822Z,47.91
2018-05-11T08:31:48.922Z,48.02
2018-05-11T08:32:48.737Z,48.02
2018-05-11T08:33:48.824Z,48.05
2018-05-11T08:34:48.930Z,48.02
2018-05-11T08:35:49.308Z,47.89
2018-05-11T08:36:48.966Z,48
2018-05-11T08:37:48.832Z,48.09
2018-05-11T08:38:48.804Z,48.03
2018-05-11T08:39:48.786Z,48.03
2018-05-11T08:40:48.711Z,48.06
2018-05-11T08:41:48.773Z,47.94
2018-05-11T08:42:48.768Z,48.01
2018-05-11T08:43:48.979Z,48.08
2018-05-11T08:44:48.843Z,48.08
2018-05-11T08:45:48.910Z,48.17
2018-05-11T08:46:48.906Z,48.5
2018-05-11T08:47:48.813Z,49.94
2018-05-11T08:48:48.746Z,50.86
2018-05-11T08:49:48.789Z,50.45
2018-05-11T08:50:48.896Z,50.39
2018-05-11T08:51:48.989Z,50.36
2018-05-11T08:52:48.763Z,50.26
2018-05-11T08:53:48.852Z,49.96
2018-05-11T08:54:48.746Z,49.98
2018-05-11T08:55:49.115Z,50.02
2018-05-11T08:56:48.739Z,49.85
2018-05-11T08:57:48.942Z,49.78
2018-05-11T08:58:48.942Z,49.73
2018-05-11T08:59:48.878Z,49.58
2018-05-11T09:00:48.823Z,49.56
2018-05-11T09:01:48.963Z,49.48
2018-05-11T09:02:48.779Z,49.45
2018-05-11T09:03:48.822Z,49.39
2018-05-11T09:04:48.773Z,49.38
2018-05-11T09:05:48.719Z,49.44
2018-05-11T09:06:48.853Z,49.29
2018-05-11T09:07:48.828Z,49.33
2018-05-11T09:08:48.847Z,49.27
2018-05-11T09:09:49.045Z,49.23
2018-05-11T09:10:48.919Z,49.28
2018-05-11T09:11:48.808Z,49.07
2018-05-11T09:12:48.783Z,49.16
2018-05-11T09:13:48.823Z,49.09
2018-05-11T09:14:48.837Z,49.1
2018-05-11T09:15:48.930Z,49.03
2018-05-11T09:16:48.767Z,49.12
2018-05-11T09:17:48.744Z,49.07
2018-05-11T09:18:48.961Z,49.07
2018-05-11T09:19:48.974Z,48.98
2018-05-11T09:20:48.737Z,48.96
2018-05-11T09:21:48.773Z,48.95
2018-05-11T09:22:48.800Z,49.01
2018-05-11T09:23:48.797Z,48.86
2018-05-11T09:24:48.894Z,48.84
2018-05-11T09:25:48.714Z,48.99
2018-05-11T09:26:48.766Z,48.84
2018-05-11T09:27:48.777Z,48.84
2018-05-11T09:28:48.807Z,48.91
2018-05-11T09:29:48.853Z,48.8
2018-05-11T09:30:48.878Z,48.75
2018-05-11T09:31:48.859Z,48.86
2018-05-11T09:32:48.763Z,48.65
2018-05-11T09:33:48.949Z,48.81
2018-05-11T09:34:48.719Z,48.79
2018-05-11T09:35:48.753Z,48.71
2018-05-11T09:36:48.876Z,48.79
2018-05-11T09:37:48.896Z,48.68
2018-05-11T09:38:48.857Z,48.58
2018-05-11T09:39:49.007Z,48.74
2018-05-11T09:40:48.911Z,48.7
2018-05-11T09:41:48.868Z,58.95
2018-05-11T09:42:14.098Z,51.67
2018-05-11T09:43:14.261Z,48.31
2018-05-11T09:44:14.398Z,48.25
2018-05-11T09:45:14.284Z,48.27
2018-05-11T09:46:14.165Z,48.1
2018-05-11T09:47:14.161Z,48.3
2018-05-11T09:48:14.163Z,48.35
2018-05-11T09:49:14.311Z,48.22
2018-05-11T09:50:14.283Z,48.35
2018-05-11T09:51:14.184Z,48.08
2018-05-11T09:52:24.179Z,47.95
2018-05-11T09:53:14.316Z,47.95
2018-05-11T09:54:14.175Z,48.06
2018-05-11T09:55:14.304Z,48.01
2018-05-11T09:56:14.332Z,48.17
2018-05-11T09:57:14.108Z,48.06
2018-05-11T09:58:14.182Z,48.25
2018-05-11T09:59:14.125Z,48.25
2018-05-11T10:00:14.330Z,48.07
2018-05-11T10:01:14.151Z,48.1
2018-05-11T10:02:14.159Z,48.37
2018-05-11T10:03:14.230Z,48.27
2018-05-11T10:04:14.123Z,48
2018-05-11T10:05:14.177Z,48.37
2018-05-11T10:06:14.213Z,48.38
2018-05-11T10:07:14.279Z,48.19
2018-05-11T10:08:14.395Z,48.9
2018-05-11T10:09:14.334Z,48.25
2018-05-11T10:10:14.303Z,48.93
2018-05-11T10:11:14.167Z,47.91
2018-05-11T10:12:14.315Z,48.07
2018-05-11T10:13:14.193Z,48.26
2018-05-11T10:14:14.171Z,48.24
2018-05-11T10:15:14.403Z,48.38
2018-05-11T10:16:14.200Z,48.23
2018-05-11T10:17:14.257Z,48.38
2018-05-11T10:18:14.235Z,48.32
2018-05-11T10:19:14.273Z,48.21
2018-05-11T10:20:14.293Z,48.42
2018-05-11T10:21:14.182Z,48.35
2018-05-11T10:22:14.336Z,48.25
2018-05-11T10:23:14.096Z,48.41
2018-05-11T10:24:14.202Z,48.35
2018-05-11T10:25:14.133Z,48.16
2018-05-11T10:26:14.244Z,48.22
2018-05-11T10:27:14.355Z,48.32
2018-05-11T10:28:14.427Z,48.08
2018-05-11T10:29:14.256Z,48.33
2018-05-11T10:30:14.260Z,48.12
2018-05-11T10:31:14.220Z,48.03
2018-05-11T10:32:14.115Z,48.13
2018-05-11T10:33:14.683Z,48.14
2018-05-11T10:34:14.332Z,47.86
2018-05-11T10:35:14.154Z,47.92
2018-05-11T10:36:14.137Z,48.05
2018-05-11T10:37:14.214Z,47.85
2018-05-11T10:38:14.216Z,48
2018-05-11T10:39:14.253Z,47.98
2018-05-11T10:40:14.292Z,48.01
2018-05-11T10:41:14.214Z,48.17
2018-05-11T10:42:14.222Z,48.02
2018-05-11T10:43:14.171Z,47.95
2018-05-11T10:44:14.279Z,48.05
2018-05-11T10:45:14.282Z,48.01
2018-05-11T10:46:14.067Z,47.94
2018-05-11T10:47:14.119Z,47.95
2018-05-11T10:48:14.178Z,47.89
2018-05-11T10:49:14.173Z,47.87
2018-05-11T10:50:14.198Z,48.01
2018-05-11T10:51:14.192Z,47.8
2018-05-11T10:52:14.251Z,47.95
2018-05-11T10:53:14.258Z,47.91
2018-05-11T10:54:14.644Z,48.04
2018-05-11T10:55:14.166Z,47.85
2018-05-11T10:56:14.214Z,48
2018-05-11T10:57:14.228Z,48.01
2018-05-11T10:58:14.311Z,47.88
2018-05-11T10:59:14.200Z,47.83
2018-05-11T11:00:14.149Z,47.87
2018-05-11T11:01:24.341Z,47.91
2018-05-11T11:02:14.222Z,47.92
2018-05-11T11:03:14.349Z,47.63
2018-05-11T11:04:14.289Z,48.37
2018-05-11T11:05:14.320Z,47.95
2018-05-11T11:05:54.869Z,47.7
2018-05-11T11:06:17.185Z,47.67
2018-05-11T11:07:17.315Z,47.65
2018-05-11T11:08:17.291Z,47.75
2018-05-11T11:09:17.252Z,47.79
2018-05-11T11:10:17.353Z,47.64
2018-05-11T11:11:17.254Z,47.64
2018-05-11T11:12:17.267Z,47.76
2018-05-11T11:13:00.553Z,47.7
2018-05-11T11:14:00.829Z,47.85
2018-05-11T11:15:00.974Z,47.88
2018-05-11T11:16:00.801Z,47.84
2018-05-11T11:17:00.687Z,47.75
2018-05-11T11:18:01.818Z,47.92
2018-05-11T11:19:00.997Z,47.83
2018-05-11T11:20:01.085Z,47.81
2018-05-11T11:21:01.144Z,47.81
2018-05-11T11:22:00.879Z,47.81
2018-05-11T11:23:00.777Z,47.95
2018-05-11T11:24:00.290Z,47.88
2018-05-11T11:25:00.179Z,47.78
2018-05-11T11:26:00.424Z,47.63
2018-05-11T11:27:00.250Z,47.68
2018-05-11T11:28:00.172Z,47.73
2018-05-11T11:29:00.290Z,47.58
2018-05-11T11:30:00.337Z,47.73
2018-05-11T11:31:00.261Z,47.59
2018-05-11T11:32:00.263Z,47.54
2018-05-11T11:33:00.375Z,47.56
2018-05-11T11:34:00.313Z,47.71
2018-05-11T11:34:34.739Z,47.71
2018-05-11T11:35:34.981Z,47.69
2018-05-11T11:36:34.816Z,47.54
2018-05-11T11:37:34.789Z,47.51
2018-05-11T11:38:34.816Z,47.62
2018-05-11T11:39:34.633Z,47.62
2018-05-11T11:40:49.202Z,47.51
2018-05-11T11:41:49.378Z,47.46
2018-05-11T11:42:49.211Z,47.65
2018-05-11T11:43:56.970Z,47.62
2018-05-11T11:44:57.047Z,47.58
2018-05-11T11:45:56.967Z,47.68
2018-05-11T11:46:57.102Z,47.71
2018-05-11T11:47:56.902Z,47.8
2018-05-11T11:48:56.954Z,47.82
2018-05-11T11:49:56.902Z,47.84
2018-05-11T11:50:56.956Z,47.78
2018-05-11T11:51:57.117Z,47.81
2018-05-11T11:52:56.842Z,47.84
2018-05-11T11:53:57.057Z,47.7
2018-05-11T11:54:56.946Z,47.65
2018-05-11T11:55:57.071Z,47.71
2018-05-11T11:56:57.205Z,47.79
2018-05-11T11:57:56.871Z,47.68
2018-05-11T11:58:57.151Z,47.76
2018-05-11T11:59:56.958Z,47.63
2018-05-11T12:00:57.095Z,47.66
2018-05-11T12:01:57.130Z,47.66
2018-05-11T12:02:57.243Z,47.63
2018-05-11T12:03:57.264Z,47.71
2018-05-11T12:04:57.070Z,47.7
2018-05-11T12:05:56.996Z,47.61
2018-05-11T12:06:57.212Z,47.67
2018-05-11T12:07:56.983Z,47.7
2018-05-11T12:08:57.161Z,47.63
2018-05-11T12:09:57.270Z,47.55
2018-05-11T12:10:57.051Z,47.58
2018-05-11T12:11:57.005Z,47.57
2018-05-11T12:12:57.038Z,47.61
2018-05-11T12:13:57.088Z,47.67
2018-05-11T12:14:57.180Z,47.58
2018-05-11T12:15:56.957Z,47.55
2018-05-11T12:16:57.000Z,47.6
2018-05-11T12:17:57.121Z,47.58
2018-05-11T12:18:57.004Z,47.61
2018-05-11T12:19:57.036Z,47.58
2018-05-11T12:20:56.932Z,47.57
2018-05-11T12:21:57.169Z,47.56
2018-05-11T12:22:56.872Z,47.64
2018-05-11T12:23:57.135Z,47.58
2018-05-11T12:24:57.203Z,47.59
2018-05-11T12:25:57.045Z,47.64
2018-05-11T12:26:56.953Z,47.6
2018-05-11T12:27:57.095Z,47.61
2018-05-11T12:28:56.861Z,47.57
2018-05-11T12:29:56.916Z,47.6
2018-05-11T12:30:56.831Z,47.65
2018-05-11T12:31:56.872Z,47.6
2018-05-11T12:32:56.981Z,47.64
2018-05-11T12:33:56.989Z,47.58
2018-05-11T12:34:57.224Z,47.57
2018-05-11T12:35:57.049Z,47.61
2018-05-11T19:00:52.797Z,58.95
2018-05-11T19:01:52.929Z,58.16
2018-05-11T19:03:02.903Z,57.39
2018-05-11T19:03:52.796Z,56.35
2018-05-11T19:04:52.968Z,56.44
2018-05-11T19:05:52.914Z,55.42
2018-05-11T19:06:52.965Z,54.94
2018-05-11T19:07:52.859Z,54.98
2018-05-11T19:08:53.153Z,54.01
2018-05-11T19:09:52.902Z,53.66
2018-05-11T19:10:52.917Z,53.78
2018-05-11T19:11:53.066Z,53.02
2018-05-11T19:12:53.193Z,52.49
2018-05-11T19:13:53.144Z,52.78
2018-05-11T19:14:52.738Z,52.16
2018-05-11T19:15:52.895Z,51.81
2018-05-11T19:16:52.901Z,51.93
2018-05-11T19:17:53.077Z,51.53